createdAt,value
2022-09-28T00:11:40.366Z,8.1
2022-09-28T00:21:42.152Z,8
2022-09-28T00:31:44.898Z,8
2022-09-28T00:41:46.827Z,7.9
2022-09-28T00:51:48.720Z,7.8
2022-09-28T01:01:50.627Z,7.7
2022-09-28T01:21:54.986Z,7.6
2022-09-28T01:31:57.315Z,7.6
2022-09-28T01:41:59.608Z,7.5
2022-09-28T01:52:02.106Z,7.5
2022-09-28T02:02:04.247Z,7.4
2022-09-28T02:22:08.886Z,7.4
2022-09-28T02:32:10.831Z,7.4
2022-09-28T02:42:13.068Z,7.4
2022-09-28T02:52:15.440Z,7.5
2022-09-28T03:02:18.032Z,7.6
2022-09-28T03:12:20.631Z,7.4
2022-09-28T03:22:22.532Z,7.4
2022-09-28T03:32:24.354Z,7.5
2022-09-28T03:42:26.888Z,7.4
2022-09-28T03:52:28.818Z,7.4
2022-09-28T04:02:30.807Z,7.4
2022-09-28T04:05:09.124Z,7.4
2022-09-28T04:12:42.780Z,7.4
2022-09-28T04:22:45.442Z,7.4
2022-09-28T04:32:47.676Z,7.4
2022-09-28T04:42:49.404Z,7.5
2022-09-28T04:52:51.559Z,7.6
2022-09-28T05:02:53.481Z,7.6
2022-09-28T05:12:56.168Z,7.5
2022-09-28T05:22:58.226Z,7.6
2022-09-28T05:33:00.737Z,7.5
2022-09-28T05:43:03.210Z,7.5
2022-09-28T05:53:05.261Z,7.6
2022-09-28T06:03:09.075Z,7.5
2022-09-28T06:13:09.978Z,7.5
2022-09-28T06:23:12.194Z,7.6
2022-09-28T06:33:14.538Z,7.8
2022-09-28T06:43:16.679Z,7.7
2022-09-28T06:53:19.013Z,7.9
2022-09-28T07:03:21.125Z,7.9
2022-09-28T07:13:45.936Z,7.9
2022-09-28T07:23:25.337Z,7.9
2022-09-28T07:33:27.469Z,8
2022-09-28T07:43:29.318Z,8.3
2022-09-28T07:53:31.149Z,8.2
2022-09-28T08:03:33.377Z,8.3
2022-09-28T08:23:36.982Z,8.3
2022-09-28T08:33:39.154Z,8.7
2022-09-28T08:53:43.236Z,8.8
2022-09-28T09:13:47.829Z,9.2
2022-09-28T09:23:49.830Z,9.5
2022-09-28T09:33:51.676Z,9.6
2022-09-28T09:43:54.307Z,9.7
2022-09-28T09:53:56.948Z,9.7
2022-09-28T10:03:58.920Z,9.9
2022-09-28T10:14:01.366Z,10
2022-09-28T10:24:04.043Z,10
2022-09-28T10:34:06.371Z,10.1
2022-09-28T10:44:08.267Z,10.1
2022-09-28T10:54:10.084Z,10.2
2022-09-28T11:04:12.694Z,10.4
2022-09-28T11:14:15.357Z,10.7
2022-09-28T11:24:19.221Z,11.1
2022-09-28T11:34:19.368Z,11.3
2022-09-28T11:44:21.591Z,11.4
2022-09-28T11:54:23.735Z,11.7
2022-09-28T12:04:25.678Z,11.6
2022-09-28T12:14:27.944Z,11.2
2022-09-28T12:24:30.310Z,11.6
2022-09-28T12:34:32.079Z,11.7
2022-09-28T12:44:34.226Z,12.1
2022-09-28T13:04:39.320Z,11.8
2022-09-28T13:14:41.455Z,11.9
2022-09-28T13:24:43.978Z,11.8
2022-09-28T13:34:46.731Z,11.7
2022-09-28T13:54:51.197Z,11.9
2022-09-28T14:04:53.158Z,12.1
2022-09-28T14:14:55.564Z,12.2
2022-09-28T14:24:57.486Z,12.1
2022-09-28T14:34:59.588Z,12
2022-09-28T14:45:03.410Z,12.2
2022-09-28T14:55:04.179Z,12.3
2022-09-28T15:05:06.486Z,12.3
2022-09-28T15:15:08.767Z,12.7
2022-09-28T15:25:11.133Z,13
2022-09-28T15:35:13.217Z,13.2
2022-09-28T15:45:15.647Z,12.6
2022-09-28T15:55:18.267Z,12.4
2022-09-28T16:15:22.591Z,12.2
2022-09-28T16:25:24.751Z,12
2022-09-28T16:35:27.074Z,11.8
2022-09-28T16:45:28.829Z,11.4
2022-09-28T16:55:40.358Z,11.3
2022-09-28T17:05:34.039Z,11.2
2022-09-28T17:15:36.574Z,11.2
2022-09-28T17:25:38.349Z,11.1
2022-09-28T17:35:40.537Z,11
2022-09-28T17:45:43.110Z,10.9
2022-09-28T17:55:45.234Z,10.8
2022-09-28T18:05:47.522Z,10.6
2022-09-28T18:25:52.143Z,10.4
2022-09-28T18:35:54.099Z,10.4
2022-09-28T18:45:56.784Z,10.2
2022-09-28T19:16:03.102Z,9.9
2022-09-28T19:26:05.364Z,9.8
2022-09-28T19:36:07.173Z,9.6
2022-09-28T19:46:09.098Z,9.4
2022-09-28T19:56:10.797Z,9.1
2022-09-28T20:06:17.166Z,9.1
2022-09-28T20:16:14.783Z,9
2022-09-28T20:26:17.197Z,9
2022-09-28T20:36:19.676Z,8.9
2022-09-28T20:46:22.165Z,8.9
2022-09-28T20:56:23.856Z,8.9
2022-09-28T21:06:26.505Z,9
2022-09-28T21:16:28.235Z,8.9
2022-09-28T21:26:30.241Z,9.1
2022-09-28T21:36:32.744Z,9
2022-09-28T21:56:36.833Z,8.8
2022-09-28T22:16:40.389Z,8.8
2022-09-28T22:36:45.182Z,8.7
2022-09-28T22:46:47.667Z,8.5
2022-09-28T22:56:49.472Z,8.3
2022-09-28T23:06:52.146Z,8.1
2022-09-28T23:16:54.750Z,7.8
2022-09-28T23:26:56.511Z,7.6
2022-09-28T23:36:58.502Z,7.5
2022-09-28T23:47:01.166Z,7.2
2022-09-28T23:57:03.489Z,7
